New Brunswick, NJ (08901)

12:22 PM EST on December 09, 2016 (GMT -0500)
River Road | | Change Station

Elev 46 ft 40.50 °N, 74.44 °W | Updated 7 minutes ago

Mostly Cloudy
Mostly Cloudy
41.0 °F
Feels Like 41 °F
N
1.6
Wind Variable Wind from WNW
Gusts 7.6 mph

Today
High -- | Low -- °F
--% Chance of Precip.
Yesterday
High -- | Low -- °F
Precip. -- in
Pressure 30.14 in
Visibility 10.0 miles
Clouds Mostly Cloudy 5000 ft
Mostly Cloudy 6500 ft
Windchill 41 °F
Dew Point 16 °F
Humidity 35%
Rainfall 0.00 in
Snow Depth Not available.
7:09 AM 4:30 PM
Waxing Gibbous, 75% visible
METAR KSMQ 091653Z AUTO 32013G21KT 10SM BKN050 BKN065 03/M09 A3013 RMK AO2 PK WND 32027/1603 SLP204 T00331089
Pressure 30.14 in
Visibility 10.0 miles
Clouds Mostly Cloudy 5000 ft
Mostly Cloudy 6500 ft
Windchill 41 °F
Dew Point 16 °F
Humidity 35%
Rainfall 0.00 in
Snow Depth Not available.
7:09 AM 4:30 PM
Waxing Gibbous, 75% visible
METAR KSMQ 091653Z AUTO 32013G21KT 10SM BKN050 BKN065 03/M09 A3013 RMK AO2 PK WND 32027/1603 SLP204 T00331089

10-Day Weather Forecast

Almanac

Astronomy

Dec. 09, 2016 Rise Set
Actual Time
Civil Twilight
Nautical Twilight
Astronomical Twilight
Moon
Length of Visible Light
Length of Day
Tomorrow will be .
, % of the Moon is Illuminated

Today's Extremes

State Highs State Lows

Community

WunderPhotos

Upload Photos

1,956,462 photos uploaded!

WunderBlog® & News

Nearby

Air Quality

  Air Quality AQ Index Pollutant
Not available.

Snow Depth

Station Depth Elevation

Earthquake Activity

City Distance Mag. Time & Date
Minimum magnitude displayed is 2.5.

Coastal Water Temperatures

Place Temperature

Stations

Nearby Weather Stations

Station Location Temp. Windchill Dew Point Humidity Wind Precip. Elev Updated Type
                   

Watches & Warnings

There are currently no watches in effect.